sensor_id;sensor_type;location;lat;lon;timestamp;temperature;humidity
69082;DHT22;56184;51.986;5.760;2022-07-12T00:02:07;16.40;87.40
69082;DHT22;56184;51.986;5.760;2022-07-12T00:04:32;16.30;88.40
69082;DHT22;56184;51.986;5.760;2022-07-12T00:06:58;16.30;88.60
69082;DHT22;56184;51.986;5.760;2022-07-12T00:09:24;16.20;88.40
69082;DHT22;56184;51.986;5.760;2022-07-12T00:11:49;16.20;89.10
69082;DHT22;56184;51.986;5.760;2022-07-12T00:14:15;16.10;89.30
69082;DHT22;56184;51.986;5.760;2022-07-12T00:16:41;16.10;89.70
69082;DHT22;56184;51.986;5.760;2022-07-12T00:19:06;16.10;89.60
69082;DHT22;56184;51.986;5.760;2022-07-12T00:21:32;16.00;90.30
69082;DHT22;56184;51.986;5.760;2022-07-12T00:23:57;16.00;90.20
69082;DHT22;56184;51.986;5.760;2022-07-12T00:26:23;16.00;90.10
69082;DHT22;56184;51.986;5.760;2022-07-12T00:28:49;16.00;90.30
69082;DHT22;56184;51.986;5.760;2022-07-12T00:31:14;15.90;90.00
69082;DHT22;56184;51.986;5.760;2022-07-12T00:33:40;15.90;90.00
69082;DHT22;56184;51.986;5.760;2022-07-12T00:36:06;15.80;89.20
69082;DHT22;56184;51.986;5.760;2022-07-12T00:38:31;15.80;89.70
69082;DHT22;56184;51.986;5.760;2022-07-12T00:40:57;15.70;90.10
69082;DHT22;56184;51.986;5.760;2022-07-12T00:43:22;15.70;90.10
69082;DHT22;56184;51.986;5.760;2022-07-12T00:45:48;15.60;90.10
69082;DHT22;56184;51.986;5.760;2022-07-12T00:48:15;15.60;90.00
69082;DHT22;56184;51.986;5.760;2022-07-12T00:50:44;15.50;90.00
69082;DHT22;56184;51.986;5.760;2022-07-12T00:53:09;15.50;90.00
69082;DHT22;56184;51.986;5.760;2022-07-12T00:55:35;15.50;90.10
69082;DHT22;56184;51.986;5.760;2022-07-12T00:58:01;15.40;90.30
69082;DHT22;56184;51.986;5.760;2022-07-12T01:00:28;15.40;90.30
69082;DHT22;56184;51.986;5.760;2022-07-12T01:02:56;15.30;90.40
69082;DHT22;56184;51.986;5.760;2022-07-12T01:05:23;15.30;90.50
69082;DHT22;56184;51.986;5.760;2022-07-12T01:07:49;15.20;90.20
69082;DHT22;56184;51.986;5.760;2022-07-12T01:10:15;15.20;90.60
69082;DHT22;56184;51.986;5.760;2022-07-12T01:12:41;15.10;90.50
69082;DHT22;56184;51.986;5.760;2022-07-12T01:15:08;15.10;90.40
69082;DHT22;56184;51.986;5.760;2022-07-12T01:17:34;15.10;90.40
69082;DHT22;56184;51.986;5.760;2022-07-12T01:20:00;15.10;90.60
69082;DHT22;56184;51.986;5.760;2022-07-12T01:22:34;15.00;91.20
69082;DHT22;56184;51.986;5.760;2022-07-12T01:25:01;15.00;91.10
69082;DHT22;56184;51.986;5.760;2022-07-12T01:27:27;14.90;91.50
69082;DHT22;56184;51.986;5.760;2022-07-12T01:29:54;14.90;91.20
69082;DHT22;56184;51.986;5.760;2022-07-12T01:32:20;14.80;91.30
69082;DHT22;56184;51.986;5.760;2022-07-12T01:35:03;14.80;91.10
69082;DHT22;56184;51.986;5.760;2022-07-12T01:37:37;14.80;91.40
69082;DHT22;56184;51.986;5.760;2022-07-12T01:40:05;14.80;91.40
69082;DHT22;56184;51.986;5.760;2022-07-12T01:42:31;14.70;91.40
69082;DHT22;56184;51.986;5.760;2022-07-12T01:44:57;14.70;91.00
69082;DHT22;56184;51.986;5.760;2022-07-12T01:47:29;14.70;91.00
69082;DHT22;56184;51.986;5.760;2022-07-12T01:49:55;14.60;91.20
69082;DHT22;56184;51.986;5.760;2022-07-12T01:52:21;14.60;91.50
69082;DHT22;56184;51.986;5.760;2022-07-12T01:54:47;14.60;91.40
69082;DHT22;56184;51.986;5.760;2022-07-12T01:57:12;14.60;91.70
69082;DHT22;56184;51.986;5.760;2022-07-12T01:59:39;14.50;91.70
69082;DHT22;56184;51.986;5.760;2022-07-12T02:02:05;14.50;91.60
69082;DHT22;56184;51.986;5.760;2022-07-12T02:04:31;14.40;92.20
69082;DHT22;56184;51.986;5.760;2022-07-12T02:06:57;14.50;91.80
69082;DHT22;56184;51.986;5.760;2022-07-12T02:09:22;14.40;92.00
69082;DHT22;56184;51.986;5.760;2022-07-12T02:11:48;14.40;91.90
69082;DHT22;56184;51.986;5.760;2022-07-12T02:14:14;14.40;92.10
69082;DHT22;56184;51.986;5.760;2022-07-12T02:16:40;14.40;92.10
69082;DHT22;56184;51.986;5.760;2022-07-12T02:19:07;14.30;92.20
69082;DHT22;56184;51.986;5.760;2022-07-12T02:21:33;14.30;92.20
69082;DHT22;56184;51.986;5.760;2022-07-12T02:24:00;14.30;92.00
69082;DHT22;56184;51.986;5.760;2022-07-12T02:26:25;14.30;92.10
69082;DHT22;56184;51.986;5.760;2022-07-12T02:28:52;14.20;92.30
69082;DHT22;56184;51.986;5.760;2022-07-12T02:31:18;14.10;92.20
69082;DHT22;56184;51.986;5.760;2022-07-12T02:33:43;14.10;92.00
69082;DHT22;56184;51.986;5.760;2022-07-12T02:36:09;14.10;92.40
69082;DHT22;56184;51.986;5.760;2022-07-12T02:38:35;14.10;91.80
69082;DHT22;56184;51.986;5.760;2022-07-12T02:41:00;14.00;91.90
69082;DHT22;56184;51.986;5.760;2022-07-12T02:43:30;14.00;92.50
69082;DHT22;56184;51.986;5.760;2022-07-12T02:46:05;13.90;92.00
69082;DHT22;56184;51.986;5.760;2022-07-12T02:48:30;13.90;91.80
69082;DHT22;56184;51.986;5.760;2022-07-12T02:50:56;13.90;92.30
69082;DHT22;56184;51.986;5.760;2022-07-12T02:53:22;13.90;91.90
69082;DHT22;56184;51.986;5.760;2022-07-12T02:55:48;13.90;91.50
69082;DHT22;56184;51.986;5.760;2022-07-12T02:58:14;13.80;91.60
69082;DHT22;56184;51.986;5.760;2022-07-12T03:00:40;13.80;92.00
69082;DHT22;56184;51.986;5.760;2022-07-12T03:03:06;13.70;91.80
69082;DHT22;56184;51.986;5.760;2022-07-12T03:05:35;13.70;91.70
69082;DHT22;56184;51.986;5.760;2022-07-12T03:08:04;13.70;92.00
69082;DHT22;56184;51.986;5.760;2022-07-12T03:10:30;13.60;92.00
69082;DHT22;56184;51.986;5.760;2022-07-12T03:12:55;13.60;92.30
69082;DHT22;56184;51.986;5.760;2022-07-12T03:15:21;13.60;92.60
69082;DHT22;56184;51.986;5.760;2022-07-12T03:17:46;13.50;92.10
69082;DHT22;56184;51.986;5.760;2022-07-12T03:20:12;13.50;92.00
69082;DHT22;56184;51.986;5.760;2022-07-12T03:22:40;13.50;92.00
69082;DHT22;56184;51.986;5.760;2022-07-12T03:25:06;13.50;92.30
69082;DHT22;56184;51.986;5.760;2022-07-12T03:27:35;13.40;92.10
69082;DHT22;56184;51.986;5.760;2022-07-12T03:30:00;13.40;92.30
69082;DHT22;56184;51.986;5.760;2022-07-12T03:32:26;13.40;92.30
69082;DHT22;56184;51.986;5.760;2022-07-12T03:34:52;13.40;91.90
69082;DHT22;56184;51.986;5.760;2022-07-12T03:37:18;13.30;92.00
69082;DHT22;56184;51.986;5.760;2022-07-12T03:39:43;13.30;92.10
69082;DHT22;56184;51.986;5.760;2022-07-12T03:42:09;13.30;92.20
69082;DHT22;56184;51.986;5.760;2022-07-12T03:44:36;13.20;92.30
69082;DHT22;56184;51.986;5.760;2022-07-12T03:47:02;13.20;92.50
69082;DHT22;56184;51.986;5.760;2022-07-12T03:49:28;13.20;92.40
69082;DHT22;56184;51.986;5.760;2022-07-12T03:51:53;13.20;92.50
69082;DHT22;56184;51.986;5.760;2022-07-12T03:54:20;13.20;92.30
69082;DHT22;56184;51.986;5.760;2022-07-12T03:56:46;13.20;92.20
69082;DHT22;56184;51.986;5.760;2022-07-12T03:59:30;13.20;92.60
69082;DHT22;56184;51.986;5.760;2022-07-12T04:01:55;13.10;92.40
69082;DHT22;56184;51.986;5.760;2022-07-12T04:04:21;13.20;92.60
69082;DHT22;56184;51.986;5.760;2022-07-12T04:06:46;13.10;93.10
69082;DHT22;56184;51.986;5.760;2022-07-12T04:09:12;13.10;92.70
69082;DHT22;56184;51.986;5.760;2022-07-12T04:11:38;13.20;92.40
69082;DHT22;56184;51.986;5.760;2022-07-12T04:14:04;13.10;92.50
69082;DHT22;56184;51.986;5.760;2022-07-12T04:16:29;13.10;92.50
69082;DHT22;56184;51.986;5.760;2022-07-12T04:18:55;13.10;92.70
69082;DHT22;56184;51.986;5.760;2022-07-12T04:21:21;13.10;93.00
69082;DHT22;56184;51.986;5.760;2022-07-12T04:23:47;13.10;92.70
69082;DHT22;56184;51.986;5.760;2022-07-12T04:26:12;13.00;92.90
69082;DHT22;56184;51.986;5.760;2022-07-12T04:28:38;13.10;92.80
69082;DHT22;56184;51.986;5.760;2022-07-12T04:31:03;13.00;92.90
69082;DHT22;56184;51.986;5.760;2022-07-12T04:33:29;13.10;93.10
69082;DHT22;56184;51.986;5.760;2022-07-12T04:35:55;13.10;93.30
69082;DHT22;56184;51.986;5.760;2022-07-12T04:38:20;13.10;93.20
69082;DHT22;56184;51.986;5.760;2022-07-12T04:40:46;13.10;93.20
69082;DHT22;56184;51.986;5.760;2022-07-12T04:43:11;13.10;93.30
69082;DHT22;56184;51.986;5.760;2022-07-12T04:45:37;13.20;93.70
69082;DHT22;56184;51.986;5.760;2022-07-12T04:48:03;13.20;93.80
69082;DHT22;56184;51.986;5.760;2022-07-12T04:50:28;13.20;93.90
69082;DHT22;56184;51.986;5.760;2022-07-12T04:52:54;13.30;94.20
69082;DHT22;56184;51.986;5.760;2022-07-12T04:55:20;13.30;94.50
69082;DHT22;56184;51.986;5.760;2022-07-12T04:57:45;13.40;94.90
69082;DHT22;56184;51.986;5.760;2022-07-12T05:00:11;13.40;94.90
69082;DHT22;56184;51.986;5.760;2022-07-12T05:02:37;13.40;95.20
69082;DHT22;56184;51.986;5.760;2022-07-12T05:05:02;13.50;95.20
69082;DHT22;56184;51.986;5.760;2022-07-12T05:07:28;13.60;95.50
69082;DHT22;56184;51.986;5.760;2022-07-12T05:09:54;13.60;95.90
69082;DHT22;56184;51.986;5.760;2022-07-12T05:12:19;13.70;96.30
69082;DHT22;56184;51.986;5.760;2022-07-12T05:14:45;13.80;96.90
69082;DHT22;56184;51.986;5.760;2022-07-12T05:17:12;13.80;96.70
69082;DHT22;56184;51.986;5.760;2022-07-12T05:19:37;14.00;96.70
69082;DHT22;56184;51.986;5.760;2022-07-12T05:22:03;14.10;97.30
69082;DHT22;56184;51.986;5.760;2022-07-12T05:24:29;14.10;97.70
69082;DHT22;56184;51.986;5.760;2022-07-12T05:26:54;14.20;98.10
69082;DHT22;56184;51.986;5.760;2022-07-12T05:29:20;14.40;98.10
69082;DHT22;56184;51.986;5.760;2022-07-12T05:31:46;14.40;98.10
69082;DHT22;56184;51.986;5.760;2022-07-12T05:34:11;14.50;98.30
69082;DHT22;56184;51.986;5.760;2022-07-12T05:36:37;14.60;99.20
69082;DHT22;56184;51.986;5.760;2022-07-12T05:39:03;14.80;98.70
69082;DHT22;56184;51.986;5.760;2022-07-12T05:41:28;14.80;98.50
69082;DHT22;56184;51.986;5.760;2022-07-12T05:43:54;15.00;98.80
69082;DHT22;56184;51.986;5.760;2022-07-12T05:46:19;15.10;99.30
69082;DHT22;56184;51.986;5.760;2022-07-12T05:48:45;15.30;99.90
69082;DHT22;56184;51.986;5.760;2022-07-12T05:51:11;15.40;99.90
69082;DHT22;56184;51.986;5.760;2022-07-12T05:53:55;15.60;99.90
69082;DHT22;56184;51.986;5.760;2022-07-12T05:56:20;15.80;99.90
69082;DHT22;56184;51.986;5.760;2022-07-12T05:58:46;16.00;99.90
69082;DHT22;56184;51.986;5.760;2022-07-12T06:01:11;16.10;99.90
69082;DHT22;56184;51.986;5.760;2022-07-12T06:03:37;16.30;99.80
69082;DHT22;56184;51.986;5.760;2022-07-12T06:06:03;16.50;99.90
69082;DHT22;56184;51.986;5.760;2022-07-12T06:08:28;16.70;99.90
69082;DHT22;56184;51.986;5.760;2022-07-12T06:10:54;16.90;99.90
69082;DHT22;56184;51.986;5.760;2022-07-12T06:13:19;17.10;99.90
69082;DHT22;56184;51.986;5.760;2022-07-12T06:15:45;17.30;99.90
69082;DHT22;56184;51.986;5.760;2022-07-12T06:18:11;17.40;99.00
69082;DHT22;56184;51.986;5.760;2022-07-12T06:20:36;17.60;99.00
69082;DHT22;56184;51.986;5.760;2022-07-12T06:23:02;17.80;98.70
69082;DHT22;56184;51.986;5.760;2022-07-12T06:25:28;17.90;98.40
69082;DHT22;56184;51.986;5.760;2022-07-12T06:27:53;18.00;98.50
69082;DHT22;56184;51.986;5.760;2022-07-12T06:30:20;18.10;97.90
69082;DHT22;56184;51.986;5.760;2022-07-12T06:32:47;18.20;97.80
69082;DHT22;56184;51.986;5.760;2022-07-12T06:35:14;18.20;97.80
69082;DHT22;56184;51.986;5.760;2022-07-12T06:37:40;18.20;97.90
69082;DHT22;56184;51.986;5.760;2022-07-12T06:40:07;18.30;98.20
69082;DHT22;56184;51.986;5.760;2022-07-12T06:42:33;18.30;97.90
69082;DHT22;56184;51.986;5.760;2022-07-12T06:44:59;18.40;98.10
69082;DHT22;56184;51.986;5.760;2022-07-12T06:47:24;18.50;97.70
69082;DHT22;56184;51.986;5.760;2022-07-12T06:49:51;18.60;97.70
69082;DHT22;56184;51.986;5.760;2022-07-12T06:52:16;18.70;97.10
69082;DHT22;56184;51.986;5.760;2022-07-12T06:54:42;18.90;96.50
69082;DHT22;56184;51.986;5.760;2022-07-12T06:57:07;18.90;96.60
69082;DHT22;56184;51.986;5.760;2022-07-12T06:59:33;19.10;96.10
69082;DHT22;56184;51.986;5.760;2022-07-12T07:01:59;19.20;94.60
69082;DHT22;56184;51.986;5.760;2022-07-12T07:04:24;19.40;94.00
69082;DHT22;56184;51.986;5.760;2022-07-12T07:06:50;19.40;94.10
69082;DHT22;56184;51.986;5.760;2022-07-12T07:09:16;19.60;93.90
69082;DHT22;56184;51.986;5.760;2022-07-12T07:11:42;19.70;93.90
69082;DHT22;56184;51.986;5.760;2022-07-12T07:14:08;19.90;94.30
69082;DHT22;56184;51.986;5.760;2022-07-12T07:16:34;20.10;93.00
69082;DHT22;56184;51.986;5.760;2022-07-12T07:19:00;20.30;92.50
69082;DHT22;56184;51.986;5.760;2022-07-12T07:21:25;20.50;92.50
69082;DHT22;56184;51.986;5.760;2022-07-12T07:23:52;20.60;91.80
69082;DHT22;56184;51.986;5.760;2022-07-12T07:26:17;20.80;91.20
69082;DHT22;56184;51.986;5.760;2022-07-12T07:28:43;20.90;91.20
69082;DHT22;56184;51.986;5.760;2022-07-12T07:31:28;21.00;90.90
69082;DHT22;56184;51.986;5.760;2022-07-12T07:33:54;21.10;90.70
69082;DHT22;56184;51.986;5.760;2022-07-12T07:36:19;21.20;90.10
69082;DHT22;56184;51.986;5.760;2022-07-12T07:38:45;21.30;88.50
69082;DHT22;56184;51.986;5.760;2022-07-12T07:41:11;21.30;85.70
69082;DHT22;56184;51.986;5.760;2022-07-12T07:43:36;21.30;87.70
69082;DHT22;56184;51.986;5.760;2022-07-12T07:46:02;21.30;88.10
69082;DHT22;56184;51.986;5.760;2022-07-12T07:48:28;21.40;88.30
69082;DHT22;56184;51.986;5.760;2022-07-12T07:50:54;21.50;88.70
69082;DHT22;56184;51.986;5.760;2022-07-12T07:53:19;21.50;86.50
69082;DHT22;56184;51.986;5.760;2022-07-12T07:55:45;21.50;86.50
69082;DHT22;56184;51.986;5.760;2022-07-12T07:58:11;21.60;84.70
69082;DHT22;56184;51.986;5.760;2022-07-12T08:00:36;21.70;85.00
69082;DHT22;56184;51.986;5.760;2022-07-12T08:03:02;21.80;84.10
69082;DHT22;56184;51.986;5.760;2022-07-12T08:05:28;21.90;84.40
69082;DHT22;56184;51.986;5.760;2022-07-12T08:07:53;22.10;83.20
69082;DHT22;56184;51.986;5.760;2022-07-12T08:10:19;22.10;81.60
69082;DHT22;56184;51.986;5.760;2022-07-12T08:12:44;22.20;82.70
69082;DHT22;56184;51.986;5.760;2022-07-12T08:15:10;22.30;83.20
69082;DHT22;56184;51.986;5.760;2022-07-12T08:17:36;22.40;81.30
69082;DHT22;56184;51.986;5.760;2022-07-12T08:20:03;22.40;79.60
69082;DHT22;56184;51.986;5.760;2022-07-12T08:22:29;22.50;79.20
69082;DHT22;56184;51.986;5.760;2022-07-12T08:24:55;22.60;78.90
69082;DHT22;56184;51.986;5.760;2022-07-12T08:27:20;22.70;80.10
69082;DHT22;56184;51.986;5.760;2022-07-12T08:29:46;22.80;78.30
69082;DHT22;56184;51.986;5.760;2022-07-12T08:32:11;22.80;77.80
69082;DHT22;56184;51.986;5.760;2022-07-12T08:34:37;22.80;78.90
69082;DHT22;56184;51.986;5.760;2022-07-12T08:37:03;22.90;78.20
69082;DHT22;56184;51.986;5.760;2022-07-12T08:39:28;22.90;76.20
69082;DHT22;56184;51.986;5.760;2022-07-12T08:41:54;22.90;75.00
69082;DHT22;56184;51.986;5.760;2022-07-12T08:44:19;23.00;75.60
69082;DHT22;56184;51.986;5.760;2022-07-12T08:46:45;23.00;74.20
69082;DHT22;56184;51.986;5.760;2022-07-12T08:49:12;23.00;75.10
69082;DHT22;56184;51.986;5.760;2022-07-12T08:51:38;23.00;75.80
69082;DHT22;56184;51.986;5.760;2022-07-12T08:56:35;23.10;73.60
69082;DHT22;56184;51.986;5.760;2022-07-12T08:59:29;23.10;75.10
69082;DHT22;56184;51.986;5.760;2022-07-12T09:01:55;23.10;75.10
69082;DHT22;56184;51.986;5.760;2022-07-12T09:04:22;23.10;74.80
69082;DHT22;56184;51.986;5.760;2022-07-12T09:06:48;23.00;73.60
69082;DHT22;56184;51.986;5.760;2022-07-12T09:09:34;23.00;73.60
69082;DHT22;56184;51.986;5.760;2022-07-12T09:12:02;23.10;76.00
69082;DHT22;56184;51.986;5.760;2022-07-12T09:14:28;23.00;73.50
69082;DHT22;56184;51.986;5.760;2022-07-12T09:17:04;23.00;73.30
69082;DHT22;56184;51.986;5.760;2022-07-12T09:19:34;23.00;73.30
69082;DHT22;56184;51.986;5.760;2022-07-12T09:22:00;23.00;73.50
69082;DHT22;56184;51.986;5.760;2022-07-12T09:24:27;23.00;73.50
69082;DHT22;56184;51.986;5.760;2022-07-12T09:27:04;23.00;72.40
69082;DHT22;56184;51.986;5.760;2022-07-12T09:29:30;23.00;73.30
69082;DHT22;56184;51.986;5.760;2022-07-12T09:31:56;23.00;72.70
69082;DHT22;56184;51.986;5.760;2022-07-12T09:34:40;23.00;72.20
69082;DHT22;56184;51.986;5.760;2022-07-12T09:37:26;23.10;72.20
69082;DHT22;56184;51.986;5.760;2022-07-12T09:39:52;23.10;73.10
69082;DHT22;56184;51.986;5.760;2022-07-12T09:42:19;23.10;70.90
69082;DHT22;56184;51.986;5.760;2022-07-12T09:44:45;23.10;72.20
69082;DHT22;56184;51.986;5.760;2022-07-12T09:47:13;23.20;71.00
69082;DHT22;56184;51.986;5.760;2022-07-12T09:49:39;23.30;72.60
69082;DHT22;56184;51.986;5.760;2022-07-12T09:52:06;23.30;70.20
69082;DHT22;56184;51.986;5.760;2022-07-12T09:54:39;23.30;69.40
69082;DHT22;56184;51.986;5.760;2022-07-12T09:57:17;23.30;68.90
69082;DHT22;56184;51.986;5.760;2022-07-12T09:59:44;23.40;70.00
69082;DHT22;56184;51.986;5.760;2022-07-12T10:02:10;23.40;69.40
69082;DHT22;56184;51.986;5.760;2022-07-12T10:04:41;23.50;69.80
69082;DHT22;56184;51.986;5.760;2022-07-12T10:07:10;23.60;71.40
69082;DHT22;56184;51.986;5.760;2022-07-12T10:09:40;23.60;69.60
69082;DHT22;56184;51.986;5.760;2022-07-12T10:12:08;23.60;69.00
69082;DHT22;56184;51.986;5.760;2022-07-12T10:14:34;23.70;69.40
69082;DHT22;56184;51.986;5.760;2022-07-12T10:17:01;23.80;68.40
69082;DHT22;56184;51.986;5.760;2022-07-12T10:19:30;23.90;70.50
69082;DHT22;56184;51.986;5.760;2022-07-12T10:21:58;24.00;68.20
69082;DHT22;56184;51.986;5.760;2022-07-12T10:29:50;24.30;68.40
69082;DHT22;56184;51.986;5.760;2022-07-12T10:32:22;24.70;67.00
69082;DHT22;56184;51.986;5.760;2022-07-12T10:34:58;25.10;62.80
69082;DHT22;56184;51.986;5.760;2022-07-12T10:37:24;25.40;62.40
69082;DHT22;56184;51.986;5.760;2022-07-12T10:40:13;25.50;60.50
69082;DHT22;56184;51.986;5.760;2022-07-12T10:42:39;25.80;62.00
69082;DHT22;56184;51.986;5.760;2022-07-12T10:45:14;26.10;59.10
69082;DHT22;56184;51.986;5.760;2022-07-12T10:47:56;26.40;59.30
69082;DHT22;56184;51.986;5.760;2022-07-12T10:53:29;27.50;59.30
69082;DHT22;56184;51.986;5.760;2022-07-12T10:58:34;27.60;54.90
69082;DHT22;56184;51.986;5.760;2022-07-12T11:01:05;27.90;53.90
69082;DHT22;56184;51.986;5.760;2022-07-12T11:03:37;28.30;53.40
69082;DHT22;56184;51.986;5.760;2022-07-12T11:06:03;28.80;55.30
69082;DHT22;56184;51.986;5.760;2022-07-12T11:08:32;29.60;54.00
69082;DHT22;56184;51.986;5.760;2022-07-12T11:11:00;29.90;49.50
69082;DHT22;56184;51.986;5.760;2022-07-12T11:13:26;29.60;48.60
69082;DHT22;56184;51.986;5.760;2022-07-12T11:15:58;29.80;50.80
69082;DHT22;56184;51.986;5.760;2022-07-12T11:18:30;30.10;48.00
69082;DHT22;56184;51.986;5.760;2022-07-12T11:20:58;30.70;50.70
69082;DHT22;56184;51.986;5.760;2022-07-12T11:23:28;31.60;51.00
69082;DHT22;56184;51.986;5.760;2022-07-12T11:25:59;31.70;50.60
69082;DHT22;56184;51.986;5.760;2022-07-12T11:28:24;32.20;47.40
69082;DHT22;56184;51.986;5.760;2022-07-12T11:30:51;32.70;48.10
69082;DHT22;56184;51.986;5.760;2022-07-12T11:33:17;33.10;42.90
69082;DHT22;56184;51.986;5.760;2022-07-12T11:35:46;33.30;49.30
69082;DHT22;56184;51.986;5.760;2022-07-12T11:38:12;33.70;43.40
69082;DHT22;56184;51.986;5.760;2022-07-12T11:40:37;33.70;42.10
69082;DHT22;56184;51.986;5.760;2022-07-12T11:43:03;33.20;43.90
69082;DHT22;56184;51.986;5.760;2022-07-12T11:45:32;32.90;42.30
69082;DHT22;56184;51.986;5.760;2022-07-12T11:48:02;34.00;47.50
69082;DHT22;56184;51.986;5.760;2022-07-12T11:50:29;35.20;44.90
69082;DHT22;56184;51.986;5.760;2022-07-12T11:52:55;35.40;46.50
69082;DHT22;56184;51.986;5.760;2022-07-12T11:55:22;35.90;42.40
69082;DHT22;56184;51.986;5.760;2022-07-12T11:57:48;36.20;38.00
69082;DHT22;56184;51.986;5.760;2022-07-12T12:00:21;36.10;39.40
69082;DHT22;56184;51.986;5.760;2022-07-12T12:02:52;36.50;42.40
69082;DHT22;56184;51.986;5.760;2022-07-12T12:05:19;36.40;39.50
69082;DHT22;56184;51.986;5.760;2022-07-12T12:07:45;36.10;38.10
69082;DHT22;56184;51.986;5.760;2022-07-12T12:10:11;36.40;39.10
69082;DHT22;56184;51.986;5.760;2022-07-12T12:12:50;36.90;45.30
69082;DHT22;56184;51.986;5.760;2022-07-12T12:15:23;37.40;42.10
69082;DHT22;56184;51.986;5.760;2022-07-12T12:17:57;37.90;44.20
69082;DHT22;56184;51.986;5.760;2022-07-12T12:20:45;38.00;38.30
69082;DHT22;56184;51.986;5.760;2022-07-12T12:23:18;38.30;35.10
69082;DHT22;56184;51.986;5.760;2022-07-12T12:25:44;38.20;35.90
69082;DHT22;56184;51.986;5.760;2022-07-12T12:28:12;38.00;41.30
69082;DHT22;56184;51.986;5.760;2022-07-12T12:30:54;38.50;42.50
69082;DHT22;56184;51.986;5.760;2022-07-12T12:33:45;38.60;39.90
69082;DHT22;56184;51.986;5.760;2022-07-12T12:36:23;38.80;40.10
69082;DHT22;56184;51.986;5.760;2022-07-12T12:38:58;38.60;37.60
69082;DHT22;56184;51.986;5.760;2022-07-12T12:41:27;38.80;37.20
69082;DHT22;56184;51.986;5.760;2022-07-12T12:43:58;38.90;34.00
69082;DHT22;56184;51.986;5.760;2022-07-12T12:46:43;39.90;36.70
69082;DHT22;56184;51.986;5.760;2022-07-12T12:49:10;40.00;34.80
69082;DHT22;56184;51.986;5.760;2022-07-12T12:51:51;39.60;33.90
69082;DHT22;56184;51.986;5.760;2022-07-12T12:54:33;39.80;34.90
69082;DHT22;56184;51.986;5.760;2022-07-12T12:56:59;40.70;37.40
69082;DHT22;56184;51.986;5.760;2022-07-12T12:59:25;41.00;36.20
69082;DHT22;56184;51.986;5.760;2022-07-12T13:01:50;41.40;35.80
69082;DHT22;56184;51.986;5.760;2022-07-12T13:04:16;41.80;35.60
69082;DHT22;56184;51.986;5.760;2022-07-12T13:06:41;41.90;31.40
69082;DHT22;56184;51.986;5.760;2022-07-12T13:09:07;41.60;32.70
69082;DHT22;56184;51.986;5.760;2022-07-12T13:11:33;41.60;33.50
69082;DHT22;56184;51.986;5.760;2022-07-12T13:13:58;41.60;32.00
69082;DHT22;56184;51.986;5.760;2022-07-12T13:16:25;41.50;33.70
69082;DHT22;56184;51.986;5.760;2022-07-12T13:18:51;41.30;30.10
69082;DHT22;56184;51.986;5.760;2022-07-12T13:21:17;41.40;33.20
69082;DHT22;56184;51.986;5.760;2022-07-12T13:23:42;41.40;31.30
69082;DHT22;56184;51.986;5.760;2022-07-12T13:26:09;41.30;31.00
69082;DHT22;56184;51.986;5.760;2022-07-12T13:28:35;41.10;30.60
69082;DHT22;56184;51.986;5.760;2022-07-12T13:31:00;40.90;30.60
69082;DHT22;56184;51.986;5.760;2022-07-12T13:33:26;40.90;29.30
69082;DHT22;56184;51.986;5.760;2022-07-12T13:35:52;41.50;32.60
69082;DHT22;56184;51.986;5.760;2022-07-12T13:38:17;41.80;29.40
69082;DHT22;56184;51.986;5.760;2022-07-12T13:40:43;41.20;31.20
69082;DHT22;56184;51.986;5.760;2022-07-12T13:43:09;41.70;29.30
69082;DHT22;56184;51.986;5.760;2022-07-12T13:45:34;41.60;27.60
69082;DHT22;56184;51.986;5.760;2022-07-12T13:48:00;42.30;29.70
69082;DHT22;56184;51.986;5.760;2022-07-12T13:50:26;42.40;28.10
69082;DHT22;56184;51.986;5.760;2022-07-12T13:52:52;42.40;29.80
69082;DHT22;56184;51.986;5.760;2022-07-12T13:55:18;42.40;30.40
69082;DHT22;56184;51.986;5.760;2022-07-12T13:57:44;42.40;28.10
69082;DHT22;56184;51.986;5.760;2022-07-12T14:00:12;41.90;28.70
69082;DHT22;56184;51.986;5.760;2022-07-12T14:02:41;41.60;28.70
69082;DHT22;56184;51.986;5.760;2022-07-12T14:05:07;42.40;29.50
69082;DHT22;56184;51.986;5.760;2022-07-12T14:07:34;42.70;27.90
69082;DHT22;56184;51.986;5.760;2022-07-12T14:10:00;43.00;27.50
69082;DHT22;56184;51.986;5.760;2022-07-12T14:12:26;43.50;27.60
69082;DHT22;56184;51.986;5.760;2022-07-12T14:14:52;43.20;26.80
69082;DHT22;56184;51.986;5.760;2022-07-12T14:17:37;42.80;27.20
69082;DHT22;56184;51.986;5.760;2022-07-12T14:20:04;41.80;27.20
69082;DHT22;56184;51.986;5.760;2022-07-12T14:22:30;41.40;29.20
69082;DHT22;56184;51.986;5.760;2022-07-12T14:24:56;40.70;26.90
69082;DHT22;56184;51.986;5.760;2022-07-12T14:27:22;40.10;28.80
69082;DHT22;56184;51.986;5.760;2022-07-12T14:29:48;39.80;30.70
69082;DHT22;56184;51.986;5.760;2022-07-12T14:32:14;39.70;29.20
69082;DHT22;56184;51.986;5.760;2022-07-12T14:34:41;39.50;31.20
69082;DHT22;56184;51.986;5.760;2022-07-12T14:37:06;39.00;29.00
69082;DHT22;56184;51.986;5.760;2022-07-12T14:39:32;38.80;30.70
69082;DHT22;56184;51.986;5.760;2022-07-12T14:41:59;38.70;29.40
69082;DHT22;56184;51.986;5.760;2022-07-12T14:44:25;38.30;30.70
69082;DHT22;56184;51.986;5.760;2022-07-12T14:46:51;37.90;29.20
69082;DHT22;56184;51.986;5.760;2022-07-12T14:49:20;37.40;29.50
69082;DHT22;56184;51.986;5.760;2022-07-12T14:51:46;36.90;29.30
69082;DHT22;56184;51.986;5.760;2022-07-12T14:54:12;36.60;30.30
69082;DHT22;56184;51.986;5.760;2022-07-12T14:56:37;36.50;31.50
69082;DHT22;56184;51.986;5.760;2022-07-12T14:59:03;36.00;31.40
69082;DHT22;56184;51.986;5.760;2022-07-12T15:01:29;35.90;32.70
69082;DHT22;56184;51.986;5.760;2022-07-12T15:03:55;36.00;32.10
69082;DHT22;56184;51.986;5.760;2022-07-12T15:06:20;36.00;31.80
69082;DHT22;56184;51.986;5.760;2022-07-12T15:08:46;35.80;31.70
69082;DHT22;56184;51.986;5.760;2022-07-12T15:11:12;35.70;31.80
69082;DHT22;56184;51.986;5.760;2022-07-12T15:13:38;35.40;32.90
69082;DHT22;56184;51.986;5.760;2022-07-12T15:16:04;35.30;33.00
69082;DHT22;56184;51.986;5.760;2022-07-12T15:18:30;35.20;32.30
69082;DHT22;56184;51.986;5.760;2022-07-12T15:20:55;35.00;33.60
69082;DHT22;56184;51.986;5.760;2022-07-12T15:23:21;34.50;33.00
69082;DHT22;56184;51.986;5.760;2022-07-12T15:25:47;34.30;32.50
69082;DHT22;56184;51.986;5.760;2022-07-12T15:28:13;33.80;31.70
69082;DHT22;56184;51.986;5.760;2022-07-12T15:30:38;33.50;33.10
69082;DHT22;56184;51.986;5.760;2022-07-12T15:33:04;33.30;34.30
69082;DHT22;56184;51.986;5.760;2022-07-12T15:35:31;33.30;34.40
69082;DHT22;56184;51.986;5.760;2022-07-12T15:37:56;33.20;35.70
69082;DHT22;56184;51.986;5.760;2022-07-12T15:40:22;33.00;35.30
69082;DHT22;56184;51.986;5.760;2022-07-12T15:42:48;32.60;35.20
69082;DHT22;56184;51.986;5.760;2022-07-12T15:45:14;32.40;35.40